Time;durP1;ratioP1;P1;durP2;ratioP2;P2;SDS_P1;SDS_P2;PMS_P1;PMS_P2;Temp;Humidity;BMP_temperature;BMP_pressure;BME280_temperature;BME280_humidity;BME280_pressure;Samples;Min_cycle;Max_cycle;Signal;HPM_P1;HPM_P2
2022/05/29 00:00:08;;;;;;;5.63;1.50;;;8.70;99.90;;;;;;6219468;23;20609;-86
2022/05/29 00:02:34;;;;;;;1.60;1.50;;;8.70;99.90;;;;;;6194328;23;20159;-86
2022/05/29 00:04:59;;;;;;;2.53;1.90;;;8.50;99.90;;;;;;6194590;23;20167;-86
2022/05/29 00:07:25;;;;;;;4.33;2.07;;;8.70;99.90;;;;;;6219258;23;20613;-86
2022/05/29 00:09:52;;;;;;;2.43;1.37;;;8.60;99.90;;;;;;6194547;23;20166;-86
2022/05/29 00:12:20;;;;;;;1.33;1.20;;;8.60;99.90;;;;;;6196074;23;20159;-87
2022/05/29 00:14:48;;;;;;;1.33;0.90;;;8.50;99.90;;;;;;6221382;23;20194;-86
2022/05/29 00:17:15;;;;;;;3.60;1.27;;;8.50;99.90;;;;;;6221447;23;20166;-88
2022/05/29 00:19:41;;;;;;;2.73;1.70;;;8.50;99.90;;;;;;6198776;23;20602;-86
2022/05/29 00:22:10;;;;;;;3.07;2.30;;;8.50;99.90;;;;;;6221994;23;20152;-86
2022/05/29 00:24:36;;;;;;;0.97;0.97;;;8.50;99.90;;;;;;6221399;23;20686;-86
2022/05/29 00:27:03;;;;;;;2.93;1.73;;;6.80;99.90;;;;;;6196483;23;20609;-87
2022/05/29 00:29:29;;;;;;;2.73;1.23;;;8.40;99.90;;;;;;6247435;23;20154;-87
2022/05/29 00:31:54;;;;;;;2.47;1.40;;;8.40;99.90;;;;;;6221182;23;20155;-86
2022/05/29 00:34:20;;;;;;;13.80;2.00;;;;;;;;;;6196005;23;20193;-87
2022/05/29 00:36:46;;;;;;;1.57;1.20;;;8.30;99.90;;;;;;6221031;23;20159;-85
2022/05/29 00:39:14;;;;;;;2.47;1.33;;;8.50;99.90;;;;;;6221284;23;20166;-86
2022/05/29 00:41:39;;;;;;;2.20;1.70;;;8.30;99.90;;;;;;6220849;23;20179;-86
2022/05/29 00:44:19;;;;;;;2.20;1.33;;;8.30;99.90;;;;;;6195688;23;20668;-86
2022/05/29 00:46:45;;;;;;;1.50;1.40;;;8.30;99.90;;;;;;6221167;23;20155;-87
2022/05/29 00:49:12;;;;;;;2.37;1.53;;;8.30;99.90;;;;;;6221355;23;20166;-87
2022/05/29 00:51:51;;;;;;;4.53;1.53;;;8.30;99.90;;;;;;6220803;23;20163;-88
2022/05/29 00:54:17;;;;;;;2.00;1.40;;;;;;;;;;6248033;23;20169;-87
2022/05/29 00:56:45;;;;;;;2.50;1.40;;;8.30;99.90;;;;;;6221397;23;20163;-88
2022/05/29 00:59:19;;;;;;;1.87;1.40;;;8.40;99.90;;;;;;6196551;23;20602;-87
2022/05/29 01:01:45;;;;;;;1.67;1.40;;;8.40;99.90;;;;;;6248194;23;20604;-88
2022/05/29 01:04:12;;;;;;;1.87;1.60;;;8.30;99.90;;;;;;6196168;23;20159;-86
2022/05/29 01:06:38;;;;;;;1.73;1.27;;;8.30;99.90;;;;;;6195927;23;20186;-87
2022/05/29 01:09:06;;;;;;;5.03;1.90;;;8.30;99.90;;;;;;6196942;23;20578;-87
2022/05/29 01:11:57;;;;;;;1.90;1.57;;;8.30;99.90;;;;;;6234588;23;20151;-86
2022/05/29 01:14:51;;;;;;;2.10;1.23;;;7.90;99.90;;;;;;6249516;23;20171;-86
2022/05/29 01:17:35;;;;;;;2.40;1.70;;;8.20;99.90;;;;;;6221981;23;20190;-86
2022/05/29 01:20:03;;;;;;;1.10;1.00;;;8.20;99.90;;;;;;6220608;23;20213;-88
2022/05/29 01:22:29;;;;;;;0.97;0.97;;;;;;;;;;6221064;23;20600;-86
2022/05/29 01:25:19;;;;;;;1.43;1.30;;;8.10;99.90;;;;;;6220910;23;20208;-87
2022/05/29 01:27:45;;;;;;;1.77;1.50;;;;;;;;;;6220741;23;20155;-87
2022/05/29 01:30:21;;;;;;;4.43;1.40;;;8.00;99.90;;;;;;6251054;23;20157;-87
2022/05/29 01:32:50;;;;;;;1.53;1.43;;;7.90;99.90;;;;;;6248977;23;20166;-87
2022/05/29 01:35:23;;;;;;;1.30;1.10;;;7.90;99.90;;;;;;6249639;22;20263;-86
2022/05/29 01:37:55;;;;;;;3.73;2.37;;;7.90;99.90;;;;;;6249643;23;20135;-86
2022/05/29 01:40:29;;;;;;;4.57;2.13;;;7.90;99.90;;;;;;6249737;22;20158;-85
2022/05/29 01:43:08;;;;;;;2.77;1.80;;;7.90;99.90;;;;;;6275263;22;20148;-86
2022/05/29 01:45:53;;;;;;;3.60;2.90;;;7.90;99.90;;;;;;6275088;22;20127;-86
2022/05/29 01:48:27;;;;;;;1.33;1.20;;;7.80;99.90;;;;;;6275398;22;20124;-86
2022/05/29 01:50:57;;;;;;;1.50;1.20;;;7.80;99.90;;;;;;6248830;23;20140;-86
2022/05/29 01:53:28;;;;;;;1.53;1.33;;;7.80;99.90;;;;;;6249233;23;20195;-86
2022/05/29 01:56:00;;;;;;;1.23;1.20;;;7.80;99.90;;;;;;6275446;22;20136;-87
2022/05/29 01:58:39;;;;;;;1.63;1.43;;;7.80;99.90;;;;;;6274245;23;20132;-92
2022/05/29 02:01:09;;;;;;;1.33;1.10;;;7.70;99.90;;;;;;6247569;23;20170;-87
2022/05/29 02:03:39;;;;;;;7.40;1.73;;;7.70;99.90;;;;;;6258745;23;20151;-87
2022/05/29 02:06:23;;;;;;;1.50;1.40;;;7.70;99.90;;;;;;6220274;23;20151;-87
2022/05/29 02:08:56;;;;;;;1.50;1.40;;;7.70;99.90;;;;;;6220755;23;20155;-87
2022/05/29 02:11:27;;;;;;;1.83;1.30;;;7.70;99.90;;;;;;6220172;23;20201;-86
2022/05/29 02:14:06;;;;;;;1.30;1.00;;;7.70;99.90;;;;;;6247127;23;20183;-88
2022/05/29 02:16:35;;;;;;;1.30;1.20;;;7.70;99.90;;;;;;6220263;23;20163;-87
2022/05/29 02:19:22;;;;;;;2.40;1.17;;;7.60;99.90;;;;;;6247172;23;20151;-88
2022/05/29 02:22:03;;;;;;;1.27;1.17;;;7.60;99.90;;;;;;6220491;23;20163;-88
2022/05/29 02:24:36;;;;;;;9.07;1.60;;;7.60;99.90;;;;;;6219908;23;20163;-88
2022/05/29 02:27:21;;;;;;;1.17;1.07;;;7.60;99.90;;;;;;6247291;23;20139;-88
2022/05/29 02:29:47;;;;;;;1.47;1.33;;;7.50;99.90;;;;;;6218897;23;20155;-87
2022/05/29 02:32:25;;;;;;;2.07;1.27;;;7.50;99.90;;;;;;6219766;23;20170;-87
2022/05/29 02:35:35;;;;;;;3.80;1.97;;;7.50;99.90;;;;;;6219686;23;20189;-87
2022/05/29 02:38:21;;;;;;;1.70;1.60;;;7.50;99.90;;;;;;6129011;23;20193;-88
2022/05/29 02:41:23;;;;;;;2.03;1.50;;;7.50;99.90;;;;;;6219477;23;20155;-87
2022/05/29 02:44:03;;;;;;;1.70;1.60;;;7.50;99.90;;;;;;6220673;23;20642;-87
2022/05/29 02:46:42;;;;;;;1.43;1.13;;;7.60;99.90;;;;;;6248044;23;20139;-87
2022/05/29 02:49:34;;;;;;;3.03;1.27;;;7.40;99.90;;;;;;6221422;23;20182;-86
2022/05/29 02:52:06;;;;;;;1.17;1.17;;;7.60;99.90;;;;;;6186263;23;20159;-86
2022/05/29 02:54:32;;;;;;;1.50;1.40;;;7.50;99.90;;;;;;6247051;23;20167;-88
2022/05/29 02:57:00;;;;;;;0.97;0.97;;;7.60;99.90;;;;;;6220410;23;20155;-87
2022/05/29 02:59:30;;;;;;;1.47;1.37;;;7.50;99.90;;;;;;6246555;23;20701;-87
2022/05/29 03:02:15;;;;;;;1.67;1.20;;;7.50;99.90;;;;;;6247137;23;20147;-87
2022/05/29 03:04:41;;;;;;;1.50;1.30;;;7.50;99.90;;;;;;6248895;23;20218;-87
2022/05/29 03:07:44;;;;;;;1.40;1.30;;;8.00;99.90;;;;;;6251947;23;20148;-87
2022/05/29 03:10:26;;;;;;;1.40;1.30;;;7.50;99.90;;;;;;6231972;23;20159;-88
2022/05/29 03:13:36;;;;;;;1.57;1.40;;;7.50;99.90;;;;;;6219697;23;20590;-87
2022/05/29 03:16:10;;;;;;;4.73;2.07;;;7.50;99.90;;;;;;6128800;23;20177;-88
2022/05/29 03:18:50;;;;;;;1.50;1.40;;;7.40;99.90;;;;;;6205505;23;20234;-88
2022/05/29 03:21:24;;;;;;;2.13;1.53;;;7.50;99.90;;;;;;6248329;23;20178;-87
2022/05/29 03:23:59;;;;;;;3.63;1.40;;;7.50;99.90;;;;;;6220362;23;20216;-87
2022/05/29 03:26:37;;;;;;;6.10;1.67;;;7.50;99.90;;;;;;6246507;23;20594;-86
2022/05/29 03:29:18;;;;;;;1.63;1.43;;;7.50;99.90;;;;;;6220075;23;20238;-90
2022/05/29 03:31:45;;;;;;;2.20;1.63;;;7.50;99.90;;;;;;6219950;23;20673;-87
2022/05/29 03:34:14;;;;;;;3.13;1.70;;;7.60;99.90;;;;;;6219788;23;20512;-87
2022/05/29 03:36:48;;;;;;;1.30;1.20;;;7.60;99.90;;;;;;6219579;23;20189;-87
2022/05/29 03:39:14;;;;;;;4.53;3.50;;;7.60;99.90;;;;;;6219346;23;20170;-86
2022/05/29 03:41:44;;;;;;;2.23;1.83;;;7.70;99.90;;;;;;6194310;23;20246;-87
2022/05/29 03:44:11;;;;;;;1.83;1.67;;;7.80;99.90;;;;;;6246395;23;20191;-86
2022/05/29 03:46:39;;;;;;;1.40;1.20;;;7.80;99.90;;;;;;6245963;23;20205;-87
2022/05/29 03:49:07;;;;;;;1.47;1.37;;;7.80;99.90;;;;;;6194899;23;20162;-86
2022/05/29 03:51:34;;;;;;;1.60;1.17;;;7.90;99.90;;;;;;6219584;23;20278;-87
2022/05/29 03:54:00;;;;;;;2.17;1.33;;;7.90;99.90;;;;;;6245702;23;20179;-87
2022/05/29 03:56:26;;;;;;;2.57;1.70;;;8.00;99.90;;;;;;6219603;23;20164;-87
2022/05/29 03:58:51;;;;;;;1.20;1.10;;;8.10;99.90;;;;;;6169337;23;20212;-87
2022/05/29 04:01:17;;;;;;;2.77;1.30;;;8.20;99.90;;;;;;6219197;23;20524;-86
2022/05/29 04:03:43;;;;;;;2.77;1.40;;;8.20;99.90;;;;;;6219022;23;20158;-86
2022/05/29 04:06:08;;;;;;;3.03;1.93;;;8.30;99.90;;;;;;6219592;23;20151;-87
2022/05/29 04:14:04;;;;;;;1.83;1.37;;;8.30;99.90;;;;;;6223304;23;20189;-87
2022/05/29 04:16:30;;;;;;;1.33;1.23;;;8.40;99.90;;;;;;6219467;23;20487;-87
2022/05/29 04:18:56;;;;;;;3.53;1.60;;;8.30;99.90;;;;;;6169393;23;20190;-87
2022/05/29 04:21:21;;;;;;;1.93;1.43;;;8.60;99.90;;;;;;6195177;23;20237;-86
2022/05/29 04:23:47;;;;;;;1.40;1.30;;;8.70;99.90;;;;;;6219342;23;20151;-86
2022/05/29 04:26:18;;;;;;;2.47;1.63;;;8.70;99.90;;;;;;6194120;23;20156;-86
2022/05/29 04:28:44;;;;;;;1.90;1.70;;;8.80;99.90;;;;;;6218955;23;20511;-88
2022/05/29 04:31:11;;;;;;;1.53;1.43;;;8.90;99.90;;;;;;6194062;23;20163;-86
2022/05/29 04:33:37;;;;;;;4.37;2.13;;;8.90;99.90;;;;;;6219145;23;20159;-87
2022/05/29 04:36:03;;;;;;;5.57;2.77;;;9.00;99.90;;;;;;6193975;23;20928;-87
2022/05/29 04:38:30;;;;;;;2.73;1.67;;;9.10;99.90;;;;;;6219270;23;20238;-87
2022/05/29 04:40:57;;;;;;;3.30;1.50;;;9.10;99.90;;;;;;6245582;23;20147;-85
2022/05/29 04:43:23;;;;;;;1.43;1.33;;;9.00;99.90;;;;;;6245756;23;20222;-87
2022/05/29 04:45:54;;;;;;;1.73;1.37;;;9.20;99.90;;;;;;6245478;23;20175;-87
2022/05/29 04:48:19;;;;;;;1.80;1.27;;;9.30;99.90;;;;;;6245738;23;20132;-87
2022/05/29 04:50:45;;;;;;;5.03;1.43;;;9.40;99.90;;;;;;6194252;23;20213;-89
2022/05/29 04:53:12;;;;;;;1.37;1.27;;;9.40;99.90;;;;;;6218846;23;20613;-87
2022/05/29 04:55:41;;;;;;;1.50;1.23;;;9.40;99.90;;;;;;6219049;23;20190;-88
2022/05/29 04:58:08;;;;;;;1.97;1.57;;;9.80;99.90;;;;;;6220199;23;20171;-87
2022/05/29 05:00:34;;;;;;;1.90;1.70;;;9.60;99.90;;;;;;6247892;23;20186;-86
2022/05/29 05:03:01;;;;;;;1.80;1.30;;;9.70;99.90;;;;;;6220932;23;20159;-87
2022/05/29 05:05:27;;;;;;;3.03;2.03;;;;;;;;;;6249712;23;20194;-88
2022/05/29 05:07:53;;;;;;;4.27;1.83;;;;;;;;;;6235405;23;20164;-89
2022/05/29 05:10:19;;;;;;;2.20;1.47;;;10.00;99.90;;;;;;6196864;23;20159;-86
2022/05/29 05:12:45;;;;;;;1.10;1.00;;;10.00;99.90;;;;;;6247640;23;20626;-87
2022/05/29 05:15:15;;;;;;;1.50;1.40;;;10.10;99.90;;;;;;6220531;23;20191;-89
2022/05/29 05:17:43;;;;;;;2.17;1.67;;;10.20;99.90;;;;;;6195037;23;20171;-87
2022/05/29 05:20:09;;;;;;;3.13;1.60;;;10.50;99.90;;;;;;6220215;23;20561;-88
2022/05/29 05:22:35;;;;;;;1.53;1.30;;;10.20;99.90;;;;;;6196028;23;20246;-90
2022/05/29 05:25:01;;;;;;;2.57;1.57;;;10.40;99.90;;;;;;6220041;23;20577;-89
2022/05/29 05:27:28;;;;;;;2.27;1.70;;;10.50;99.90;;;;;;6195589;23;20163;-89
2022/05/29 05:29:53;;;;;;;2.93;1.83;;;10.70;99.90;;;;;;6220899;23;20579;-89
2022/05/29 05:32:19;;;;;;;2.22;1.85;;;10.80;99.90;;;;;;6195726;23;20170;-89
2022/05/29 05:34:45;;;;;;;3.20;2.33;;;11.00;99.90;;;;;;6170665;23;20190;-88
2022/05/29 05:37:12;;;;;;;1.55;1.40;;;11.10;99.90;;;;;;6195320;23;20598;-86
2022/05/29 05:39:37;;;;;;;1.48;1.13;;;11.10;99.90;;;;;;6247418;23;20148;-87
2022/05/29 05:42:05;;;;;;;1.90;1.20;;;11.20;99.90;;;;;;6196080;23;20496;-89
2022/05/29 05:44:31;;;;;;;2.65;1.23;;;11.30;99.90;;;;;;6221240;23;20230;-87
2022/05/29 05:46:56;;;;;;;1.92;1.15;;;11.40;99.90;;;;;;6171990;23;20578;-88
2022/05/29 05:49:23;;;;;;;1.10;0.98;;;11.40;99.90;;;;;;6221332;23;20208;-86
2022/05/29 05:51:54;;;;;;;4.47;1.13;;;11.40;99.90;;;;;;6221487;23;20201;-88
2022/05/29 05:54:20;;;;;;;0.90;0.90;;;11.20;99.90;;;;;;6222846;23;20202;-87
2022/05/29 05:56:50;;;;;;;3.03;1.20;;;11.40;99.90;;;;;;6248396;23;20158;-89
2022/05/29 05:59:16;;;;;;;0.90;0.90;;;11.50;99.90;;;;;;6230493;23;20198;-88
2022/05/29 06:01:41;;;;;;;7.47;1.50;;;11.60;99.90;;;;;;6197501;23;20159;-88
2022/05/29 06:04:07;;;;;;;4.82;1.25;;;11.70;99.90;;;;;;6220604;23;20163;-87
2022/05/29 06:06:33;;;;;;;1.95;1.10;;;11.80;99.90;;;;;;6198744;23;20186;-87
2022/05/29 06:09:00;;;;;;;1.45;1.27;;;11.90;99.90;;;;;;6194824;23;20460;-88
2022/05/29 06:11:27;;;;;;;1.45;1.10;;;12.00;99.90;;;;;;6198390;23;20163;-88
2022/05/29 06:13:53;;;;;;;3.25;1.40;;;12.10;99.90;;;;;;6222241;23;20191;-89
2022/05/29 06:16:19;;;;;;;1.83;1.23;;;12.20;99.90;;;;;;6195370;23;20171;-89
2022/05/29 06:18:45;;;;;;;3.30;1.45;;;11.80;99.90;;;;;;6222713;23;20254;-89
2022/05/29 06:21:11;;;;;;;1.83;1.50;;;12.30;99.90;;;;;;6248962;23;20544;-86
2022/05/29 06:23:38;;;;;;;1.90;1.50;;;12.00;99.90;;;;;;6223167;23;20238;-89
2022/05/29 06:26:07;;;;;;;2.38;1.35;;;12.00;99.90;;;;;;6210263;23;20159;-90
2022/05/29 06:28:33;;;;;;;1.80;1.52;;;12.10;99.90;;;;;;6228715;23;20155;-88
2022/05/29 06:30:59;;;;;;;1.45;1.25;;;12.20;99.90;;;;;;6197698;23;20226;-91
2022/05/29 06:33:26;;;;;;;2.38;1.50;;;12.30;99.90;;;;;;6225806;23;20158;-92
2022/05/29 06:35:53;;;;;;;3.00;1.65;;;12.30;99.90;;;;;;6225210;23;20182;-94
2022/05/29 06:38:19;;;;;;;1.50;1.30;;;12.50;99.90;;;;;;6223518;23;20195;-90
2022/05/29 06:40:49;;;;;;;3.03;1.55;;;12.60;99.90;;;;;;6231165;23;20201;-91
2022/05/29 06:43:16;;;;;;;1.55;1.40;;;12.60;99.90;;;;;;6212650;23;20190;-91
2022/05/29 06:45:42;;;;;;;4.40;1.98;;;12.00;99.90;;;;;;6240289;23;20163;-88
2022/05/29 06:48:08;;;;;;;13.35;1.40;;;12.30;99.90;;;;;;6215461;23;20163;-89
2022/05/29 06:50:33;;;;;;;1.67;1.58;;;12.30;99.90;;;;;;6246664;22;20195;-89
2022/05/29 06:52:59;;;;;;;5.47;1.55;;;;;;;;;;6219274;23;20170;-91
2022/05/29 06:55:25;;;;;;;1.30;1.20;;;12.50;99.90;;;;;;6240232;23;20187;-91
2022/05/29 06:57:54;;;;;;;1.10;1.10;;;9.40;99.90;;;;;;6211841;23;20177;-91
2022/05/29 07:08:41;;;;;;;1.10;0.98;;;12.90;99.90;;;;;;6260496;23;20547;-90
2022/05/29 07:11:42;;;;;;;1.38;1.27;;;13.30;99.90;;;;;;6233577;23;20156;-90
2022/05/29 07:14:08;;;;;;;1.17;1.00;;;;;;;;;;6176442;23;20214;-91
2022/05/29 07:16:39;;;;;;;3.20;1.88;;;13.30;99.90;;;;;;6219047;23;20163;-89
2022/05/29 07:19:05;;;;;;;0.93;0.90;;;;;;;;;;6223868;23;20155;-92
2022/05/29 07:21:43;;;;;;;1.85;1.33;;;13.10;99.90;;;;;;6253557;23;20613;-90
2022/05/29 07:24:10;;;;;;;2.15;1.10;;;;;;;;;;6252676;23;20182;-90
2022/05/29 07:26:41;;;;;;;2.47;1.20;;;13.30;99.90;;;;;;6226853;23;20175;-91
2022/05/29 07:29:07;;;;;;;1.27;1.17;;;;;;;;;;6227131;23;20158;-90
2022/05/29 07:31:35;;;;;;;4.00;1.10;;;;;;;;;;6228428;23;20155;-90
2022/05/29 07:34:02;;;;;;;3.90;1.58;;;;;;;;;;6254235;23;20237;-89
2022/05/29 07:36:28;;;;;;;1.30;1.15;;;;;;;;;;6226198;23;20159;-90
2022/05/29 07:38:57;;;;;;;3.53;1.20;;;;;;;;;;6232088;23;20159;-90
2022/05/29 07:44:13;;;;;;;1.98;1.17;;;13.20;99.90;;;;;;6264532;22;20194;-90
2022/05/29 07:46:49;;;;;;;1.23;1.15;;;13.30;99.90;;;;;;6248335;22;20194;-89
2022/05/29 07:49:22;;;;;;;1.08;0.90;;;;;;;;;;6248767;22;20139;-89
2022/05/29 07:52:00;;;;;;;1.40;1.05;;;13.80;99.90;;;;;;6274643;22;20151;-90
2022/05/29 07:54:30;;;;;;;1.10;1.10;;;14.10;99.90;;;;;;6248868;22;20234;-90
2022/05/29 07:57:01;;;;;;;1.95;1.10;;;14.40;99.90;;;;;;6204529;23;20204;-89
2022/05/29 07:59:27;;;;;;;2.70;0.80;;;;;;;;;;6213609;23;20128;-90
2022/05/29 08:02:01;;;;;;;2.08;1.25;;;14.30;99.90;;;;;;6213220;23;20171;-90
2022/05/29 08:04:29;;;;;;;1.73;1.10;;;;;;;;;;6202107;23;20203;-91
2022/05/29 08:09:31;;;;;;;1.52;1.20;;;;;;;;;;6243532;23;20191;-90
2022/05/29 08:11:58;;;;;;;1.45;1.35;;;;;;;;;;6205574;23;20406;-91
2022/05/29 08:14:27;;;;;;;1.10;0.93;;;14.30;99.90;;;;;;6217116;23;20215;-91
2022/05/29 08:16:53;;;;;;;2.97;1.27;;;;;;;;;;6200662;23;20219;-89
2022/05/29 08:19:26;;;;;;;1.80;1.63;;;14.20;99.90;;;;;;6204880;23;20206;-89
2022/05/29 08:21:54;;;;;;;1.23;1.13;;;14.10;99.90;;;;;;6197287;23;20206;-92
2022/05/29 08:32:35;;;;;;;1.40;1.30;;;13.90;99.90;;;;;;6182751;23;20151;-89
2022/05/29 08:35:06;;;;;;;2.05;1.30;;;14.10;99.90;;;;;;6193164;23;20184;-91
2022/05/29 08:37:41;;;;;;;0.88;0.88;;;15.20;99.90;;;;;;6196810;23;20156;-93
2022/05/29 08:40:15;;;;;;;0.98;0.98;;;;;;;;;;6182786;23;20186;-93
2022/05/29 08:42:51;;;;;;;1.30;1.17;;;14.70;99.90;;;;;;6201153;23;20152;-92
2022/05/29 08:45:22;;;;;;;2.22;1.00;;;14.50;99.90;;;;;;6226340;23;20163;-92
2022/05/29 08:47:50;;;;;;;1.38;1.08;;;14.40;99.90;;;;;;6177577;23;20152;-93
2022/05/29 08:50:52;;;;;;;;;;;;;;;;;;;;;
2022/05/29 08:53:40;;;;;;;1.08;0.98;;;14.20;99.90;;;;;;6226172;23;20155;-92
2022/05/29 08:56:35;;;;;;;2.17;1.45;;;14.20;99.90;;;;;;6196775;23;20179;-93
2022/05/29 08:59:49;;;;;;;1.45;1.20;;;14.30;99.90;;;;;;6208461;23;20171;-92
2022/05/29 09:02:48;;;;;;;2.13;1.13;;;14.20;99.90;;;;;;6151574;23;20165;-90
2022/05/29 09:05:25;;;;;;;1.23;1.05;;;14.30;99.90;;;;;;6182395;23;20169;-90
2022/05/29 09:08:00;;;;;;;3.17;1.42;;;14.30;99.90;;;;;;6212036;23;20242;-92
2022/05/29 09:10:37;;;;;;;1.80;1.30;;;14.20;99.90;;;;;;6187395;23;20306;-92
2022/05/29 09:13:20;;;;;;;1.77;1.20;;;14.20;99.90;;;;;;6193886;23;20751;-90
2022/05/29 09:15:57;;;;;;;1.00;1.00;;;14.10;99.90;;;;;;6192586;23;20341;-93
2022/05/29 09:18:34;;;;;;;4.93;1.38;;;14.10;99.90;;;;;;6191366;23;20159;-92
2022/05/29 09:21:10;;;;;;;0.95;0.90;;;14.20;99.90;;;;;;6191947;23;20156;-94
2022/05/29 09:23:43;;;;;;;1.38;1.20;;;14.30;99.90;;;;;;6217739;23;20168;-93
2022/05/29 09:26:21;;;;;;;0.95;0.85;;;14.30;99.90;;;;;;6189199;23;20270;-90
2022/05/29 09:28:58;;;;;;;1.15;1.08;;;14.30;99.90;;;;;;6191499;23;20231;-89
2022/05/29 09:31:25;;;;;;;1.90;1.10;;;14.40;99.90;;;;;;6189031;23;20440;-90
2022/05/29 09:33:54;;;;;;;2.10;1.40;;;14.50;99.90;;;;;;6186188;23;20167;-89
2022/05/29 09:36:20;;;;;;;1.40;1.30;;;;;;;;;;6192025;23;20164;-91
2022/05/29 09:38:54;;;;;;;1.30;1.20;;;14.50;99.90;;;;;;6191225;23;20683;-90
2022/05/29 09:41:42;;;;;;;1.05;0.90;;;14.50;99.90;;;;;;6191244;23;20216;-90
2022/05/29 09:44:16;;;;;;;1.15;1.05;;;14.60;99.90;;;;;;6218457;23;20156;-88
2022/05/29 09:46:52;;;;;;;3.40;1.02;;;14.70;99.90;;;;;;6192157;23;20683;-89
2022/05/29 09:49:41;;;;;;;1.88;1.48;;;14.60;99.90;;;;;;6217343;23;20155;-88
2022/05/29 09:52:20;;;;;;;2.22;1.35;;;14.50;99.90;;;;;;6187735;23;20572;-88
2022/05/29 09:54:54;;;;;;;2.60;1.67;;;14.40;99.90;;;;;;6190300;23;20186;-88
2022/05/29 09:57:22;;;;;;;2.03;1.27;;;14.60;99.90;;;;;;6217272;23;20286;-85
2022/05/29 09:59:50;;;;;;;1.10;1.10;;;14.60;99.90;;;;;;6191576;23;20271;-89
2022/05/29 10:02:27;;;;;;;1.33;0.90;;;14.60;99.90;;;;;;6225378;23;20148;-88
2022/05/29 10:04:58;;;;;;;1.88;1.33;;;14.70;99.90;;;;;;6199589;23;20163;-87
2022/05/29 10:07:36;;;;;;;3.33;1.23;;;14.80;99.90;;;;;;6222117;23;20183;-85
2022/05/29 10:10:02;;;;;;;4.18;1.15;;;;;;;;;;6192571;23;20159;-86
2022/05/29 10:12:58;;;;;;;3.22;1.10;;;14.90;99.90;;;;;;6190664;23;20164;-84
2022/05/29 10:15:30;;;;;;;2.08;1.38;;;15.00;99.90;;;;;;6193548;23;20219;-87
2022/05/29 10:17:59;;;;;;;1.15;1.10;;;15.10;99.90;;;;;;6190328;23;20160;-84
2022/05/29 10:20:25;;;;;;;1.92;1.40;;;;;;;;;;6192425;23;20152;-88
2022/05/29 10:22:59;;;;;;;3.95;1.27;;;15.40;99.90;;;;;;6216560;23;20160;-88
2022/05/29 10:25:41;;;;;;;2.70;1.63;;;15.70;99.90;;;;;;6167202;23;20230;-91
2022/05/29 10:28:17;;;;;;;1.35;1.23;;;15.60;99.90;;;;;;6197128;23;20589;-90
2022/05/29 10:31:04;;;;;;;1.02;1.00;;;15.50;99.90;;;;;;6198723;23;20216;-91
2022/05/29 10:33:54;;;;;;;4.55;1.23;;;15.60;99.90;;;;;;6197989;23;20194;-88
2022/05/29 10:36:25;;;;;;;1.20;1.10;;;15.70;99.90;;;;;;6208099;23;20175;-87
2022/05/29 10:39:22;;;;;;;;;;;;;;;;;;;;;
2022/05/29 10:41:54;;;;;;;1.30;1.20;;;15.60;99.90;;;;;;6215052;23;20646;-88
2022/05/29 10:44:43;;;;;;;2.88;1.20;;;15.60;99.90;;;;;;6215244;23;20186;-89
2022/05/29 10:47:28;;;;;;;1.20;1.10;;;15.50;99.90;;;;;;6190410;23;20163;-87
2022/05/29 10:50:14;;;;;;;1.95;1.20;;;15.50;99.90;;;;;;6193410;23;20160;-91
2022/05/29 10:52:58;;;;;;;3.08;1.35;;;15.50;99.90;;;;;;6191543;23;20225;-89
2022/05/29 10:55:37;;;;;;;3.53;1.38;;;15.60;99.90;;;;;;6192704;23;20653;-86
2022/05/29 10:58:22;;;;;;;3.30;1.20;;;15.50;99.90;;;;;;6209735;23;20140;-93
2022/05/29 11:03:17;;;;;;;2.05;1.25;;;15.10;99.90;;;;;;6214251;23;20148;-86
2022/05/29 11:04:14;;;;;;;2.20;1.30;;;15.30;99.90;;;;;;6214992;23;20186;-87
2022/05/29 11:06:45;;;;;;;1.23;1.13;;;15.50;99.90;;;;;;6188635;23;20164;-85
2022/05/29 11:09:40;;;;;;;1.77;1.50;;;15.60;99.90;;;;;;6220479;23;20689;-87
2022/05/29 11:12:17;;;;;;;4.78;1.38;;;15.60;99.90;;;;;;6189069;23;20179;-88
2022/05/29 11:15:10;;;;;;;1.63;1.27;;;15.50;99.90;;;;;;6188431;23;20187;-88
2022/05/29 11:18:03;;;;;;;2.45;1.48;;;13.60;99.90;;;;;;6188289;23;20250;-87
2022/05/29 11:20:51;;;;;;;1.67;1.17;;;16.10;99.90;;;;;;6210128;23;20148;-89
2022/05/29 11:23:32;;;;;;;2.42;1.00;;;16.50;99.90;;;;;;6210067;23;20179;-86
2022/05/29 11:26:29;;;;;;;1.30;0.90;;;16.70;99.90;;;;;;6187792;23;20171;-84
2022/05/29 11:29:25;;;;;;;4.82;1.33;;;16.90;99.90;;;;;;6188581;23;20159;-88
2022/05/29 11:31:56;;;;;;;1.52;1.13;;;17.10;99.90;;;;;;6187231;23;20160;-86
2022/05/29 11:34:29;;;;;;;1.70;1.17;;;17.20;99.90;;;;;;6214849;23;20182;-88
2022/05/29 11:37:21;;;;;;;1.73;1.25;;;17.00;99.90;;;;;;6189269;23;20160;-87
2022/05/29 11:39:52;;;;;;;1.63;1.20;;;17.40;99.90;;;;;;6188909;23;20238;-88
2022/05/29 11:42:55;;;;;;;2.70;1.67;;;17.90;98.00;;;;;;6192081;23;20693;-86
2022/05/29 11:53:01;;;;;;;1.52;1.27;;;17.50;93.70;;;;;;6159766;23;20606;-87
2022/05/29 11:55:32;;;;;;;1.73;1.10;;;17.20;95.90;;;;;;6187642;23;20233;-87
2022/05/29 11:58:04;;;;;;;1.00;0.93;;;17.30;95.10;;;;;;6188801;23;20485;-87
2022/05/29 12:00:37;;;;;;;2.33;1.20;;;17.30;95.50;;;;;;6188358;23;20156;-86
2022/05/29 12:03:11;;;;;;;2.28;1.48;;;17.10;95.50;;;;;;6188481;23;20246;-83
2022/05/29 12:06:16;;;;;;;1.50;1.10;;;17.00;96.70;;;;;;6188048;23;20186;-83
2022/05/29 12:09:24;;;;;;;1.70;1.35;;;17.00;97.50;;;;;;6095169;23;20533;-87
2022/05/29 12:11:58;;;;;;;2.15;1.33;;;17.40;99.40;;;;;;6101160;23;20241;-83
2022/05/29 12:14:50;;;;;;;1.27;1.00;;;17.60;97.80;;;;;;6150536;23;20185;-89
2022/05/29 12:17:44;;;;;;;1.30;1.20;;;17.90;96.00;;;;;;6161073;23;20157;-85
2022/05/29 12:20:57;;;;;;;1.08;0.98;;;18.10;91.30;;;;;;6157719;23;20157;-86
2022/05/29 12:23:26;;;;;;;2.25;1.30;;;18.30;90.80;;;;;;6154392;23;20175;-87
2022/05/29 12:26:12;;;;;;;1.48;1.38;;;18.20;88.80;;;;;;6160745;23;20580;-86
2022/05/29 12:28:57;;;;;;;1.27;1.17;;;18.40;89.70;;;;;;6160793;23;20168;-87
2022/05/29 12:31:45;;;;;;;2.17;1.35;;;18.30;91.20;;;;;;6161285;23;20156;-88
2022/05/29 12:34:28;;;;;;;1.17;1.08;;;18.60;91.10;;;;;;6161721;23;20271;-88
2022/05/29 12:37:34;;;;;;;1.48;1.38;;;19.00;86.70;;;;;;6187158;23;20171;-87
2022/05/29 12:40:52;;;;;;;;;;;;;;;;;;;;;
2022/05/29 12:43:32;;;;;;;2.35;1.30;;;18.50;85.00;;;;;;6188789;23;20219;-86
2022/05/29 12:46:01;;;;;;;1.45;1.00;;;;;;;;;;6161652;23;20662;-86
2022/05/29 12:48:58;;;;;;;1.20;1.10;;;18.70;86.40;;;;;;6161768;23;20160;-87
2022/05/29 12:51:49;;;;;;;1.40;1.30;;;18.80;85.20;;;;;;6176811;23;20312;-85
2022/05/29 12:55:08;;;;;;;1.25;1.10;;;18.80;81.20;;;;;;6172337;23;20195;-86
2022/05/29 12:57:43;;;;;;;1.45;1.20;;;18.90;86.10;;;;;;6125344;23;20248;-87
2022/05/29 13:00:26;;;;;;;2.83;1.17;;;19.00;86.20;;;;;;6162305;23;20773;-87
2022/05/29 13:03:11;;;;;;;2.25;1.08;;;18.50;78.30;;;;;;6161151;23;20256;-88
2022/05/29 13:06:07;;;;;;;1.70;1.50;;;18.20;78.20;;;;;;6187950;23;20175;-90
2022/05/29 13:08:54;;;;;;;1.20;1.13;;;18.30;82.50;;;;;;6204887;23;20195;-88
2022/05/29 13:11:26;;;;;;;1.83;1.17;;;18.20;78.20;;;;;;6191541;23;20160;-89
2022/05/29 13:13:59;;;;;;;1.13;1.10;;;18.10;80.60;;;;;;6216669;23;20140;-90
2022/05/29 13:16:35;;;;;;;1.40;1.30;;;18.30;84.30;;;;;;6191642;23;20200;-88
2022/05/29 13:19:17;;;;;;;1.50;1.20;;;18.00;81.20;;;;;;6191409;23;20243;-88
2022/05/29 13:22:01;;;;;;;1.40;1.30;;;18.40;81.10;;;;;;6193992;23;20182;-90
2022/05/29 13:24:47;;;;;;;2.17;1.55;;;18.40;83.80;;;;;;6192754;23;20187;-88
2022/05/29 13:27:34;;;;;;;1.77;1.23;;;17.60;82.30;;;;;;6191498;23;20575;-88
2022/05/29 13:30:03;;;;;;;2.05;1.35;;;18.10;82.70;;;;;;6166564;23;20164;-84
2022/05/29 13:32:31;;;;;;;2.50;1.48;;;18.10;83.60;;;;;;6217657;23;20235;-88
2022/05/29 13:35:03;;;;;;;3.88;1.92;;;18.20;84.40;;;;;;6166392;23;20237;-86
2022/05/29 13:37:32;;;;;;;1.42;1.23;;;18.00;87.90;;;;;;6191302;23;20214;-86
2022/05/29 13:40:06;;;;;;;2.72;1.30;;;18.00;88.00;;;;;;6191033;23;20160;-86
2022/05/29 13:42:32;;;;;;;1.70;1.50;;;18.00;84.70;;;;;;6217498;23;20150;-86
2022/05/29 13:44:58;;;;;;;1.60;1.50;;;;;;;;;;6191205;23;20191;-88
2022/05/29 13:47:31;;;;;;;1.90;1.42;;;18.30;85.20;;;;;;6176012;23;20160;-88
2022/05/29 13:50:11;;;;;;;1.88;1.30;;;18.20;81.40;;;;;;6218530;23;20148;-89
2022/05/29 13:53:00;;;;;;;1.55;1.35;;;18.10;79.90;;;;;;6218922;23;20140;-90
2022/05/29 13:55:35;;;;;;;1.80;1.55;;;18.10;80.30;;;;;;6244849;23;20184;-88
2022/05/29 14:03:59;;;;;;;1.35;1.25;;;17.90;78.30;;;;;;6222586;23;20139;-88
2022/05/29 14:06:27;;;;;;;2.70;1.90;;;18.00;78.80;;;;;;6218409;23;20226;-86
2022/05/29 14:09:27;;;;;;;2.00;1.48;;;18.10;78.80;;;;;;6217972;23;20320;-87
2022/05/29 14:12:03;;;;;;;1.30;1.20;;;18.10;79.30;;;;;;6243778;23;20219;-88
2022/05/29 14:14:35;;;;;;;1.98;1.88;;;18.10;79.70;;;;;;6218192;23;20198;-87
2022/05/29 14:17:29;;;;;;;6.90;2.15;;;18.20;82.40;;;;;;6217699;23;20164;-89
2022/05/29 14:20:09;;;;;;;1.75;1.33;;;18.20;82.50;;;;;;6226684;23;20152;-87
2022/05/29 14:22:59;;;;;;;1.85;1.48;;;18.20;79.30;;;;;;6195459;23;20250;-89